KEAT/EAT METAR and TAF weather

Enter ICAO airport designator
Station Type Date Time Source
KEAT METAR 2021/07/29 17:55 UTC NOAA

KEAT 291755Z AUTO 28004KT 10SM CLR 28/08 A3003 RMK AO2 SLP157 T02830078 10289 20200 58006


Station Type Date Time Source
KEAT Decoded METAR 2021/07/29 17:55 UTC NOAA

WENATCHEE PANGBORN MEMO, WA, United States (KEAT) 47-24N 120-12W 377M
Jul 29, 2021 - 01:55 PM EDT / 2021.07.29 1755 UTC
Wind: from the W (280 degrees) at 5 MPH (4 KT):0
Visibility: 10 mile(s):0
Sky conditions: clear
Temperature: 82.9 F (28.3 C)
Dew Point: 46.0 F (7.8 C)
Relative Humidity: 27%
Pressure (altimeter): 30.03 in. Hg (1016 hPa)
Pressure tendency: 0.02 inches (0.6 hPa) lower than three hours ago
ob: KEAT 291755Z AUTO 28004KT 10SM CLR 28/08 A3003 RMK AO2 SLP157 T02830078 10289 20200 58006
cycle: 18

Station Type Date Time Source
KEAT TAF 2021/07/29 18:22 UTC NOAA

TAF KEAT 291720Z 2918/3018 29008KT P6SM SKC
FM292100 12003KT P6SM SKC
FM300600 33006KT P6SM SKC

Example: see airport list